Skip Navigation Links Skip Navigation Links

Current Weather

Central Park, New York

For information only: do not use for flight planning or navigation.
Latest weather
Observation time Monday, December 16, 2019 3:51 AM EST
Local time Monday, December 16, 2019 4:02 AM EST
Flight conditions Visual Meteorological Conditions
Winds
Wind direction variable
Wind speed 6 mph
Visibility 10 mi.
Sky condition
Ceiling unlimited
Cloud layer few clouds 12,000 ft.
Temperature 34°F
Dewpoint 15°F
Altimeter 30.23 in.Hg
Pressure change last 3 hours-0.03 in.Hg
Pressure rising, then falling
Derived measurements
Relative humidity 45%
Wind chill 29°F
Density altitude -1841 ft.
Sea-level pressure 30.20 in.Hg
Remarks
Fully automated report.
System requires maintenance.
Automated weather observing station with precipitation discriminator.
METAR KNYC 160851Z AUTO VRB05KT 10SM FEW120 01/M09 A3023 RMK AO2 SLP228 T00111094 50011 $

Settings

Location code

InnerDrive.Weather 4.0.6770.0 Release CLR 4.0.30319.42000
Copyright ©2018 Inner Drive Technology. All rights reserved. Portions Copyright ©1986-2018 David Braverman.

Find weather

Site navigation


Skip Navigation Links

Place info

Page info

PayPal - The safer, easier way to pay online!

Return home.

Copyright ©2019 Inner Drive Technology. Purveyors of fine, hand-crafted computer software. Page printed 2019-12-16T09:02:00 UTC.